createdAt,value
2022-11-27T00:02:29.464Z,18.85
2022-11-27T00:07:35.233Z,31.85
2022-11-27T00:12:40.948Z,26.38
2022-11-27T00:17:47.366Z,14.70
2022-11-27T00:22:53.953Z,15.13
2022-11-27T00:28:00.915Z,25.35
2022-11-27T00:33:06.988Z,21.48
2022-11-27T00:38:17.041Z,22.73
2022-11-27T00:43:23.958Z,11.50
2022-11-27T00:48:33.278Z,13.63
2022-11-27T00:53:54.119Z,14.50
2022-11-27T00:59:02.395Z,18.63
2022-11-27T01:04:08.470Z,13.20
2022-11-27T01:09:14.849Z,16.00
2022-11-27T01:14:24.362Z,16.27
2022-11-27T01:19:32.955Z,11.77
2022-11-27T01:24:39.122Z,15.25
2022-11-27T01:29:45.110Z,9.23
2022-11-27T01:34:52.975Z,14.27
2022-11-27T01:40:00.484Z,13.60
2022-11-27T01:50:16.892Z,8.40
2022-11-27T01:55:52.310Z,10.50
2022-11-27T02:00:58.611Z,15.73
2022-11-27T02:06:04.422Z,9.90
2022-11-27T02:11:24.884Z,5.93
2022-11-27T02:16:40.365Z,7.57
2022-11-27T02:22:03.086Z,8.75
2022-11-27T02:27:41.473Z,11.45
2022-11-27T02:32:51.790Z,9.63
2022-11-27T02:38:03.032Z,5.07
2022-11-27T02:43:12.319Z,5.32
2022-11-27T02:48:20.338Z,11.90
2022-11-27T02:53:32.459Z,12.38
2022-11-27T02:58:39.483Z,6.70
2022-11-27T03:03:46.984Z,6.18
2022-11-27T03:08:57.036Z,9.95
2022-11-27T03:14:15.815Z,10.90
2022-11-27T03:19:27.878Z,6.85
2022-11-27T03:24:43.750Z,6.32
2022-11-27T03:29:56.273Z,5.82
2022-11-27T03:35:03.750Z,10.40
2022-11-27T03:40:10.852Z,6.18
2022-11-27T03:45:25.361Z,7.05
2022-11-27T03:50:52.271Z,5.97
2022-11-27T03:56:10.793Z,8.30
2022-11-27T04:01:22.595Z,7.32
2022-11-27T04:06:29.198Z,10.35
2022-11-27T04:11:36.072Z,7.07
2022-11-27T04:16:43.331Z,7.18
2022-11-27T04:21:49.668Z,5.38
2022-11-27T04:26:56.549Z,6.93
2022-11-27T04:32:03.050Z,4.32
2022-11-27T04:37:09.344Z,7.70
2022-11-27T04:42:16.264Z,4.97
2022-11-27T04:47:22.931Z,7.05
2022-11-27T04:52:29.247Z,7.82
2022-11-27T04:57:35.563Z,6.10
2022-11-27T05:12:53.381Z,11.98
2022-11-27T05:18:00.146Z,6.45
2022-11-27T05:23:07.016Z,9.98
2022-11-27T05:28:13.815Z,7.85
2022-11-27T05:33:20.780Z,11.30
2022-11-27T05:38:27.699Z,8.05
2022-11-27T05:43:36.524Z,7.10
2022-11-27T05:48:45.723Z,8.98
2022-11-27T05:53:55.222Z,11.88
2022-11-27T05:59:01.700Z,7.70
2022-11-27T06:04:08.119Z,8.30
2022-11-27T06:09:15.042Z,8.05
2022-11-27T06:14:22.480Z,11.60
2022-11-27T06:19:28.879Z,10.43
2022-11-27T06:24:44.709Z,7.57
2022-11-27T06:34:56.640Z,10.47
2022-11-27T06:40:04.955Z,6.67
2022-11-27T06:45:15.501Z,6.93
2022-11-27T06:50:20.975Z,6.97
2022-11-27T06:55:26.393Z,8.53
2022-11-27T07:00:32.442Z,7.22
2022-11-27T07:10:43.491Z,7.32
2022-11-27T07:15:49.545Z,6.93
2022-11-27T07:26:07.439Z,8.48
2022-11-27T07:31:14.356Z,6.43
2022-11-27T07:36:21.242Z,8.30
2022-11-27T07:41:33.420Z,6.75
2022-11-27T07:46:39.627Z,6.47
2022-11-27T07:51:45.762Z,5.90
2022-11-27T07:56:51.811Z,6.63
2022-11-27T08:01:58.091Z,4.63
2022-11-27T08:07:04.144Z,5.93
2022-11-27T08:12:11.144Z,8.18
2022-11-27T08:17:16.653Z,7.78
2022-11-27T08:22:25.856Z,7.10
2022-11-27T08:27:34.355Z,6.30
2022-11-27T08:32:43.179Z,9.85
2022-11-27T08:37:52.628Z,9.82
2022-11-27T08:43:10.658Z,7.57
2022-11-27T08:48:18.911Z,9.48
2022-11-27T08:53:25.186Z,7.22
2022-11-27T08:58:30.908Z,7.05
2022-11-27T09:03:36.632Z,8.68
2022-11-27T09:08:44.631Z,7.05
2022-11-27T09:13:51.377Z,4.70
2022-11-27T09:18:57.563Z,4.97
2022-11-27T09:24:04.271Z,9.38
2022-11-27T09:29:10.276Z,5.18
2022-11-27T09:39:27.587Z,5.65
2022-11-27T09:44:54.821Z,6.07
2022-11-27T09:50:06.669Z,7.03
2022-11-27T09:55:16.857Z,5.57
2022-11-27T10:00:28.776Z,6.82
2022-11-27T10:05:46.928Z,6.53
2022-11-27T10:11:10.846Z,9.00
2022-11-27T10:16:16.711Z,6.07
2022-11-27T10:26:55.811Z,7.07
2022-11-27T10:32:03.942Z,5.35
2022-11-27T10:37:22.067Z,5.78
2022-11-27T10:42:36.135Z,4.35
2022-11-27T10:47:43.283Z,5.40
2022-11-27T10:52:55.622Z,5.25
2022-11-27T10:58:19.570Z,4.55
2022-11-27T11:03:25.679Z,7.68
2022-11-27T11:08:31.709Z,6.25
2022-11-27T11:18:52.533Z,4.75
2022-11-27T11:29:06.411Z,5.32
2022-11-27T11:34:31.892Z,4.18
2022-11-27T11:39:45.124Z,6.93
2022-11-27T11:45:13.508Z,5.53
2022-11-27T11:50:25.543Z,3.38
2022-11-27T11:55:57.596Z,7.28
2022-11-27T12:01:26.955Z,4.55
2022-11-27T12:06:37.851Z,5.38
2022-11-27T12:11:51.206Z,6.25
2022-11-27T12:17:20.973Z,4.82
2022-11-27T12:22:47.828Z,4.05
2022-11-27T12:28:04.970Z,4.82
2022-11-27T12:33:37.039Z,5.60
2022-11-27T12:38:43.548Z,4.72
2022-11-27T12:44:01.849Z,4.60
2022-11-27T12:49:26.621Z,5.30
2022-11-27T12:54:39.874Z,6.00
2022-11-27T13:00:16.265Z,4.03
2022-11-27T13:05:24.812Z,2.73
2022-11-27T13:10:41.011Z,4.78
2022-11-27T13:16:00.050Z,4.03
2022-11-27T13:21:11.155Z,3.67
2022-11-27T13:26:26.513Z,4.78
2022-11-27T13:31:40.649Z,6.40
2022-11-27T13:37:00.603Z,6.20
2022-11-27T13:42:34.227Z,5.57
2022-11-27T13:47:45.025Z,3.58
2022-11-27T13:53:01.684Z,5.30
2022-11-27T13:58:11.342Z,5.43
2022-11-27T14:03:29.069Z,4.35
2022-11-27T14:08:40.121Z,2.90
2022-11-27T14:13:51.583Z,5.30
2022-11-27T14:19:01.458Z,3.13
2022-11-27T14:24:28.110Z,4.65
2022-11-27T14:29:35.409Z,3.15
2022-11-27T14:34:43.110Z,4.30
2022-11-27T14:39:50.068Z,2.38
2022-11-27T14:45:17.740Z,4.60
2022-11-27T14:50:28.437Z,3.13
2022-11-27T14:55:34.936Z,2.45
2022-11-27T15:01:01.795Z,4.53
2022-11-27T15:06:10.245Z,2.17
2022-11-27T15:11:49.135Z,3.63
2022-11-27T15:16:56.375Z,4.90
2022-11-27T15:22:11.911Z,3.57
2022-11-27T15:27:22.486Z,5.40
2022-11-27T15:32:28.952Z,5.78
2022-11-27T15:37:37.770Z,6.35
2022-11-27T15:49:02.408Z,3.45
2022-11-27T15:54:08.890Z,5.18
2022-11-27T15:59:25.952Z,6.05
2022-11-27T16:04:41.063Z,5.90
2022-11-27T16:10:05.406Z,5.85
2022-11-27T16:15:47.452Z,5.82
2022-11-27T16:20:55.782Z,5.90
2022-11-27T16:26:04.974Z,4.95
2022-11-27T16:31:16.152Z,5.45
2022-11-27T16:36:26.490Z,6.28
2022-11-27T16:41:54.334Z,5.22
2022-11-27T16:47:33.331Z,6.95
2022-11-27T16:52:44.619Z,6.30
2022-11-27T16:57:51.890Z,5.97
2022-11-27T17:03:02.678Z,5.40
2022-11-27T17:08:14.903Z,5.07
2022-11-27T17:13:30.369Z,4.90
2022-11-27T17:18:57.830Z,6.33
2022-11-27T17:24:15.926Z,5.50
2022-11-27T17:29:24.210Z,6.90
2022-11-27T17:34:36.712Z,5.88
2022-11-27T17:39:50.604Z,6.55
2022-11-27T17:45:03.292Z,6.47
2022-11-27T17:50:21.489Z,6.57
2022-11-27T17:55:43.268Z,6.33
2022-11-27T18:00:58.698Z,6.10
2022-11-27T18:06:06.940Z,6.70
2022-11-27T18:11:15.088Z,7.18
2022-11-27T18:16:25.707Z,10.05
2022-11-27T18:21:32.602Z,7.28
2022-11-27T18:27:07.382Z,8.55
2022-11-27T18:32:03.725Z,10.10
2022-11-27T18:37:09.267Z,12.02
2022-11-27T18:42:15.350Z,11.75
2022-11-27T18:52:26.077Z,11.38
2022-11-27T18:57:32.300Z,15.13
2022-11-27T19:02:38.954Z,17.17
2022-11-27T19:07:44.570Z,14.48
2022-11-27T19:12:50.900Z,11.98
2022-11-27T19:17:56.499Z,17.75
2022-11-27T19:23:02.070Z,15.93
2022-11-27T19:28:09.597Z,14.63
2022-11-27T19:33:15.059Z,15.00
2022-11-27T19:38:20.851Z,14.43
2022-11-27T19:43:27.356Z,12.60
2022-11-27T19:48:32.510Z,10.77
2022-11-27T19:53:39.036Z,15.90
2022-11-27T19:58:44.831Z,10.35
2022-11-27T20:03:52.093Z,10.45
2022-11-27T20:09:02.823Z,10.07
2022-11-27T20:14:09.311Z,10.00
2022-11-27T20:19:15.697Z,13.45
2022-11-27T20:24:23.580Z,20.13
2022-11-27T20:29:29.022Z,12.32
2022-11-27T20:34:38.981Z,13.13
2022-11-27T20:39:46.204Z,14.48
2022-11-27T20:44:52.888Z,14.48
2022-11-27T20:49:58.485Z,8.52
2022-11-27T20:55:04.374Z,13.60
2022-11-27T21:00:11.095Z,12.73
2022-11-27T21:05:16.736Z,12.60
2022-11-27T21:10:25.293Z,13.77
2022-11-27T21:15:31.354Z,12.30
2022-11-27T21:20:36.549Z,11.00
2022-11-27T21:25:44.677Z,13.73
2022-11-27T21:30:50.512Z,13.00
2022-11-27T21:35:59.244Z,12.05
2022-11-27T21:41:05.445Z,13.90
2022-11-27T21:46:15.185Z,12.93
2022-11-27T21:51:22.747Z,15.27
2022-11-27T21:56:30.777Z,14.55
2022-11-27T22:01:36.830Z,16.67
2022-11-27T22:06:43.659Z,13.20
2022-11-27T22:11:50.012Z,17.48
2022-11-27T22:16:57.871Z,11.30
2022-11-27T22:22:03.983Z,19.60
2022-11-27T22:27:09.216Z,19.42
2022-11-27T22:32:14.818Z,15.35
2022-11-27T22:37:20.954Z,15.33
2022-11-27T22:42:26.828Z,18.38
2022-11-27T22:47:32.303Z,17.27
2022-11-27T22:52:38.232Z,19.13
2022-11-27T22:57:44.108Z,18.33
2022-11-27T23:02:50.873Z,18.23
2022-11-27T23:07:56.678Z,14.82
2022-11-27T23:13:03.567Z,16.20
2022-11-27T23:18:09.516Z,20.98
2022-11-27T23:23:36.462Z,19.35
2022-11-27T23:28:45.256Z,14.00
2022-11-27T23:33:51.826Z,20.52
2022-11-27T23:39:02.538Z,16.50
2022-11-27T23:44:08.988Z,21.15
2022-11-27T23:49:15.571Z,20.58
2022-11-27T23:54:21.397Z,19.40
